Мобильная версия
Войти

ТУ-22М3 Оленегорск

 ↓ ВНИЗ

12..585960

Татарин
Старожил форума
22.01.2019 14:38
МОСКВА, 22 января. /ТАСС/. Бомбардировщик Ту-22М3 потерпел катастрофу при посадке на военный аэродром в Мурманской области. Об этом сообщил во вторник ТАСС источник в силовых структурах.

"Бомбардировщик Ту-22М3 потерпел катастрофу при заходе на посадку на аэродроме полка дальней авиации в Оленегорске (Мурманская область). Авиапроисшествие случилось около 13:40 мск", - сказал собеседник агентства.
https://tass.ru/proisshestviya ...
Сергей 789
Старожил форума
22.01.2019 14:50
Командир и штурман живые. Судя по новостям
ЗПУ
Молодой боец
22.01.2019 14:59
Сергей 789
Командир и штурман живые. Судя по новостям
Помощник и второй штурман ?
504
Старожил форума
22.01.2019 14:59
Вот же непруха пошла в ВВС(((Царствие небесное погибшим, здоровья выжившим...
Red Faraon
Опытный боец
22.01.2019 15:03
В Минобороны РФ также подтвердили гибель двоих членов экипажа.
http://www.aif.ru/incidents/v_ ...
storm184
Старожил форума
22.01.2019 15:06
Да январь задался... Царствие небесное погибшим... Всего наилучшего выжившим.
1
Старожил форума
22.01.2019 15:06
Отправляли на запасной в Североморск, почему то не ушел, заход на посадку в тумане
AndrewK
Старожил форума
22.01.2019 15:07
....... Начался год ((((
Vlad0857
Опытный боец
22.01.2019 15:16
Прям черная полоса ....
booster
Старожил форума
22.01.2019 15:23
"Самолет, по поступившей предварительно информации, на взлетной полосе развалился на две части, вытекло топливо, розлив сейчас устраняют", - рассказали ТАСС в правительстве Мурманской области. https://tass.ru/proisshestviya ...
вальдос
Старожил форума
22.01.2019 15:27
И что на все эти катастрофы скажет наш пехотный Главком ВКС , всем построится и провести строевые занятия ?
ЗПУ
Молодой боец
22.01.2019 15:29
вальдос
И что на все эти катастрофы скажет наш пехотный Главком ВКС , всем построится и провести строевые занятия ?
Подтянуть портупеи, и начистить сапоги. )))
АВЛ
Старожил форума
22.01.2019 15:34
И что на все эти катастрофы скажет наш пехотный Главком ВКС ,
________

а может в начале надо послушать его зама - комадующего ВВС
Витамин
Старожил форума
22.01.2019 15:34
вальдос
И что на все эти катастрофы скажет наш пехотный Главком ВКС , всем построится и провести строевые занятия ?
Полагаете, выяснять причины катастроф не обязательно? Ну, так, для начала.
unicod
Старожил форума
22.01.2019 15:36
Первая мысль, наверное, как и у многих- черный для авиации январь выдался
Flanker2724
Старожил форума
22.01.2019 15:36
а может в начале надо послушать его зама - комадующего ВВС

здесь командующего ДА
АВЛ
Старожил форума
22.01.2019 15:39
здесь командующего ДА
_______

Юр, эт понятно, что с комэски надо начинать
Mozart
Старожил форума
22.01.2019 15:41
Flanker2724
а может в начале надо послушать его зама - комадующего ВВС

здесь командующего ДА
Командующий его заставлял в метель моститься на аэродром? И что это за дрова, которые можно вот так разложить на ровном месте. Нет нормальной бортовой электроники - сидите дома, ждите хорошую погоду.
ЗПУ
Молодой боец
22.01.2019 15:49
Mozart
Командующий его заставлял в метель моститься на аэродром? И что это за дрова, которые можно вот так разложить на ровном месте. Нет нормальной бортовой электроники - сидите дома, ждите хорошую погоду.
Про электронику полностью согласен. Сравните метеоминимум ILS (хотя бы Сат I), и минимум РСБН-П (он же ПРМГ, он же Катет). Зато #неимеетаналоговвмире. )))
le0nchik
Старожил форума
22.01.2019 16:01
ну что за люди постоянно сидящие на форуме и разводящие флуд в любой теме!
беда, люди погибли, зайдешь глянуть о чем речь и смотришь что жизнь продолжается и можно поржать над чем угодно.
сам я спокойно отношусь к смерти, все там будем, но какие то начатки совести в плане общения должны быть.
booster
Старожил форума
22.01.2019 16:09
ganss
Старожил форума
22.01.2019 16:22
наступление темноты 13:33 UTC. Снег. Дымка. ((((
B-17
Старожил форума
22.01.2019 16:25
ТАСС: Скончался третий летчик бомбардировщика, разбившегося в Мурманской области.

stick pusher
Молодой боец
22.01.2019 16:25
Рядом Мурманск
ULMM 220100Z 17001MPS CAVOK M24/M27 Q1004 R31/490143 NOSIG RMK QFE746
ULMM 220200Z 18001MPS 9999 FEW002 M24/M28 Q1004 R31/490143 NOSIG RMK QBB070 OBST OBSC QFE746
ULMM 220300Z 15001MPS CAVOK M24/M27 Q1004 R31/490143 NOSIG RMK QFE746
ULMM 220400Z 17001MPS 9999 FEW048 M22/M25 Q1004 R31/490143 NOSIG RMK QFE745
ULMM 220500Z 02001MPS 9999 SCT008 M20/M23 Q1003 R31/490143 NOSIG RMK OBST OBSC QFE745
ULMM 220600Z 17001MPS 9999 SCT007 M19/M22 Q1003 R31/490143 NOSIG RMK OBST OBSC QFE745
ULMM 220700Z 17001MPS 0500 0450SE R31/0800U +SHSN VV008 M17/M20 Q1002 R31/490143 NOSIG RMK OBST OBSC QFE744
ULMM 220800Z 00000MPS 9999 -SHSN BKN069CB M16/M19 Q1002 R31/490536 NOSIG RMK QFE744
ULMM 220900Z 00000MPS 9999 BKN013 M18/M21 Q1002 R31/490536 NOSIG RMK QFE744
ULMM 221000Z 24001MPS 9999 BKN012 M17/M19 Q1001 R31/490536 NOSIG RMK QFE744
ULMM 221100Z 27001MPS 8000 -SHSN BKN031CB M18/M21 Q1001 R31/490336 NOSIG RMK QFE743
ULMM 221200Z 23001MPS 1100 1000SW R31/1200U SHSN BKN015CB M16/M18 Q1001 R31/490534 NOSIG RMK QFE743
ULMM 221300Z 16001MPS 9999 BKN006 M19/M22 Q1000 R31/490534 NOSIG RMK OBST OBSC QFE743
stick pusher
Молодой боец
22.01.2019 16:27
судя по всему попали в кратковременный заряд
neustaf
Старожил форума
22.01.2019 16:29
И что это за дрова, которые можно вот так разложить на ровном месте.
/////
Boeing-747-400 2003 года выпуска в Бишкеке То же дровами был? Разложили в хлам еще и аул с лица Земли стерли.
ganss
Старожил форума
22.01.2019 16:33
При попадании в заряд - МБФР и на второй круг. С ТНВ уходит (даже с ракетой)
UN767
Старожил форума
22.01.2019 16:33
Да беда а шо дай бог выкоробкатся с реанимации побыстрей
Yakudzya
Опытный боец
22.01.2019 16:34
Аракс
Старожил форума
22.01.2019 16:36
Упокой Господи души грешные...
stick pusher
Молодой боец
22.01.2019 16:38
может просто выкатились?
В мурманске то не фонтан сцепление , а тут скорее всего еще хуже было.
ganss
Старожил форума
22.01.2019 16:38
Руководителя полетами вместе с ПРП на СКП под расстрел ((
Костромич
Старожил форума
22.01.2019 16:42
........
booster
Старожил форума
22.01.2019 16:43
stick pusher
может просто выкатились?
В мурманске то не фонтан сцепление , а тут скорее всего еще хуже было.
и от Ксц самолёт разломился надвое на полосе, так что ли?...
stick pusher
Молодой боец
22.01.2019 16:48
а лично вам уже доложили , что именно на полосе и именно надвое ?
Flanker2724
Старожил форума
22.01.2019 16:49
Инсайдерская :
//Ту-22М3, разбившийся сегодня на аэродроме Оленья в Мурманской области, заходил на посадку со скоростью 300 км/ч (что говорит о значительном остатке топлива на борту) курсом 188° с севера на юг. Можно предполагать причины, по которым самолет сел мимо полосы: неблагоприятные ГМУ, из-за которых экипаж мог принять огни строений за огни ВПП либо бликование снега, введшее летчиков в заблуждение (такие прецеденты имели место ранее, когда самолет, например, садился на ярко освещенный склад АТИ, приняв огни ограждения за световое оборудование аэродрома).

При ударе о землю ракетоносец разломился пополам и лежит между 3 и 4 рулежными дорожками аэродрома. К сожалению, два летчика, командир экипажа и его помощник, оба в звании майоров, погибли сразу, третий, штурман, скончался по дороге в госпиталь.

Аэродром закрыт, ожидается прибытие комиссии.//
AndrewK
Старожил форума
22.01.2019 16:51
Один из выживших, скончался в госпитале....кто не уточняется.
(((((
Botanikas
Старожил форума
22.01.2019 17:07
Земля пухом....

Поясните пожалуйста, кто в курсе, на таких серьезных аппаратах систем на подобие EVS / SVS не предусмотрено?
borchet
Старожил форума
22.01.2019 17:07
Если погода верна - то попытка сесть дома любой ценой..., увы удалась. Между ближним и полосой лежат уже тысячи экипажей и все равно - каждый очередной считает, что именно у него получится.
Как то одну при мне повезло - сбил антенны с БРПМ в наборе высоты после раннего снижения на Су-17м4 ночером в дымке
booster
Старожил форума
22.01.2019 17:11
stick pusher
а лично вам уже доложили , что именно на полосе и именно надвое ?
Да, лично мне и всему миру уже ТАСС доложил ещё два часа тому назад в 15.20: "22 января 2019 года в Мурманской области после выполнения планового учебно-тренировочного полета при попадании в снежный заряд совершил жесткую посадку самолет Ту-22М3. В результате жесткого касания взлетной полосы воздушным судном произошло его разрушение. Самолет, по поступившей предварительно информации, на взлетной полосе развалился на две части, вытекло топливо, розлив сейчас устраняют", - рассказали ТАСС в правительстве Мурманской области". https://tass.ru/proisshestviya ...
Samuel77
Старожил форума
22.01.2019 17:14
так и воевать ни с кем не надо, сами попереубиваются...(
Савреев
Старожил форума
22.01.2019 17:23
Flanker2724
Инсайдерская :
//Ту-22М3, разбившийся сегодня на аэродроме Оленья в Мурманской области, заходил на посадку со скоростью 300 км/ч (что говорит о значительном остатке топлива на борту) курсом 188° с севера на юг. Можно предполагать причины, по которым самолет сел мимо полосы: неблагоприятные ГМУ, из-за которых экипаж мог принять огни строений за огни ВПП либо бликование снега, введшее летчиков в заблуждение (такие прецеденты имели место ранее, когда самолет, например, садился на ярко освещенный склад АТИ, приняв огни ограждения за световое оборудование аэродрома).

При ударе о землю ракетоносец разломился пополам и лежит между 3 и 4 рулежными дорожками аэродрома. К сожалению, два летчика, командир экипажа и его помощник, оба в звании майоров, погибли сразу, третий, штурман, скончался по дороге в госпиталь.

Аэродром закрыт, ожидается прибытие комиссии.//
Если заходил на посадку на скорости 300 км/час, то это маловато для данного типа самолета, а если такова посадочная, то - нормальная, если не отличная.
ПАНЯ ЧМЗ
Старожил форума
22.01.2019 17:31
Flanker2724
Инсайдерская :
//Ту-22М3, разбившийся сегодня на аэродроме Оленья в Мурманской области, заходил на посадку со скоростью 300 км/ч (что говорит о значительном остатке топлива на борту) курсом 188° с севера на юг. Можно предполагать причины, по которым самолет сел мимо полосы: неблагоприятные ГМУ, из-за которых экипаж мог принять огни строений за огни ВПП либо бликование снега, введшее летчиков в заблуждение (такие прецеденты имели место ранее, когда самолет, например, садился на ярко освещенный склад АТИ, приняв огни ограждения за световое оборудование аэродрома).

При ударе о землю ракетоносец разломился пополам и лежит между 3 и 4 рулежными дорожками аэродрома. К сожалению, два летчика, командир экипажа и его помощник, оба в звании майоров, погибли сразу, третий, штурман, скончался по дороге в госпиталь.

Аэродром закрыт, ожидается прибытие комиссии.//
перед кем извиняться если он несет чушь , что про вмск , что про ТУ -22м3 .(ограничения по закрылкам 265 если что)..
allugovykh
Старожил форума
22.01.2019 17:42
...
ПАНЯ ЧМЗ
Старожил форума
22.01.2019 17:42
265 при заходе на посадку
Доминиканец
Старожил форума
22.01.2019 17:46
ПАНЯ ЧМЗ
265 при заходе на посадку
Безумного патриота сразу видно по клевете на достойный самолет.
Нестеров Евгений
Старожил форума
22.01.2019 17:46
....
МЕН
Старожил форума
22.01.2019 17:48
ПАНЯ ЧМЗ
Старожил форума
22.01.2019 17:42
265 при заходе на посадку
)))В этом вопросе вы вообще не разбираетесь
АВЛ
Старожил форума
22.01.2019 17:51
МЕН
265 при заходе на посадку
)))В этом вопросе вы вообще не разбираетесь

Жень, я уже подумал, что 22М3 можно и на палубу заходить))))
Савреев
Старожил форума
22.01.2019 17:52
ПАНЯ ЧМЗ
265 при заходе на посадку
Извините, но Ту-22м3 на такой скорости не летает. Добавьте не менее сотни км/час при полностью выпущенных закрылках. Вот это и будет максимальной V пр при таком положении закрылков. На Ту-22м2 она составляла 370 км/час. По первости многим была оформлена предпосылка к ЛП. Потом притерлись и все стало нормально.
12..585960




 

 

 

 

← На главную страницу

Чтобы публиковать комментарии, вы должны войти на сайт.

Реклама на сайте Обратная связь/Связаться с администрацией
Рейтинг@Mail.ru